createdAt,value
2023-02-02T00:01:22.409Z,20.48
2023-02-02T00:03:50.872Z,27.35
2023-02-02T00:06:23.300Z,29.65
2023-02-02T00:08:50.633Z,21.95
2023-02-02T00:11:18.995Z,25.73
2023-02-02T00:13:46.330Z,22.83
2023-02-02T00:16:22.075Z,18.58
2023-02-02T00:18:49.552Z,21.67
2023-02-02T00:21:16.486Z,24.15
2023-02-02T00:23:43.487Z,18.40
2023-02-02T00:26:11.181Z,17.30
2023-02-02T00:28:38.116Z,22.05
2023-02-02T00:31:05.334Z,25.20
2023-02-02T00:33:32.338Z,32.33
2023-02-02T00:35:59.249Z,27.83
2023-02-02T00:38:26.267Z,28.80
2023-02-02T00:40:53.126Z,28.98
2023-02-02T00:43:20.112Z,24.98
2023-02-02T00:45:47.504Z,21.27
2023-02-02T00:48:14.620Z,25.58
2023-02-02T00:50:41.784Z,22.98
2023-02-02T00:53:08.697Z,26.95
2023-02-02T00:55:35.667Z,33.42
2023-02-02T00:58:02.976Z,26.40
2023-02-02T01:00:29.987Z,22.10
2023-02-02T01:02:57.639Z,25.42
2023-02-02T01:05:24.923Z,19.98
2023-02-02T01:07:51.920Z,22.58
2023-02-02T01:10:19.725Z,28.48
2023-02-02T01:12:46.674Z,22.65
2023-02-02T01:15:14.350Z,26.83
2023-02-02T01:17:41.652Z,26.38
2023-02-02T01:20:12.950Z,25.35
2023-02-02T01:22:39.788Z,27.35
2023-02-02T01:25:06.940Z,26.17
2023-02-02T01:27:33.892Z,23.83
2023-02-02T01:30:00.986Z,32.17
2023-02-02T01:32:27.868Z,25.23
2023-02-02T01:34:55.458Z,23.50
2023-02-02T01:37:25.415Z,22.30
2023-02-02T01:39:52.458Z,25.60
2023-02-02T01:42:23.651Z,21.15
2023-02-02T01:45:17.789Z,19.27
2023-02-02T01:47:54.282Z,19.92
2023-02-02T01:50:26.979Z,20.60
2023-02-02T01:52:57.556Z,24.50
2023-02-02T01:55:28.410Z,23.02
2023-02-02T01:58:05.371Z,26.27
2023-02-02T02:00:32.429Z,19.80
2023-02-02T02:03:08.444Z,22.92
2023-02-02T02:06:05.850Z,23.35
2023-02-02T02:08:55.802Z,21.83
2023-02-02T02:11:24.401Z,31.10
2023-02-02T02:14:12.055Z,18.92
2023-02-02T02:16:45.126Z,26.70
2023-02-02T02:23:36.961Z,28.10
2023-02-02T02:26:34.270Z,30.30
2023-02-02T02:29:32.691Z,27.58
2023-02-02T02:32:19.457Z,25.55
2023-02-02T02:35:02.507Z,20.08
2023-02-02T02:37:52.718Z,19.80
2023-02-02T02:40:38.060Z,23.02
2023-02-02T02:43:27.729Z,19.85
2023-02-02T02:45:55.342Z,23.95
2023-02-02T02:48:22.343Z,21.05
2023-02-02T02:50:50.115Z,24.23
2023-02-02T02:53:23.749Z,22.92
2023-02-02T02:56:09.890Z,15.82
2023-02-02T02:58:55.373Z,19.88
2023-02-02T03:01:40.427Z,27.55
2023-02-02T03:04:29.115Z,12.60
2023-02-02T03:07:13.998Z,20.63
2023-02-02T03:09:43.740Z,22.35
2023-02-02T03:12:11.044Z,21.17
2023-02-02T03:14:39.297Z,23.77
2023-02-02T03:17:06.291Z,24.67
2023-02-02T03:19:33.311Z,16.63
2023-02-02T03:22:00.362Z,27.10
2023-02-02T03:24:27.192Z,23.23
2023-02-02T03:26:54.211Z,18.25
2023-02-02T03:29:21.186Z,23.10
2023-02-02T03:31:48.613Z,14.93
2023-02-02T03:34:15.468Z,20.23
2023-02-02T03:36:42.504Z,17.23
2023-02-02T03:39:09.525Z,23.58
2023-02-02T03:41:36.396Z,16.17
2023-02-02T03:44:03.355Z,27.02
2023-02-02T03:46:30.363Z,15.95
2023-02-02T03:48:57.534Z,15.77
2023-02-02T03:51:24.571Z,18.70
2023-02-02T03:53:51.420Z,23.77
2023-02-02T03:56:21.165Z,19.48
2023-02-02T03:58:48.112Z,18.27
2023-02-02T04:01:15.859Z,22.42
2023-02-02T04:03:43.097Z,18.95
2023-02-02T04:06:10.040Z,19.58
2023-02-02T04:08:37.117Z,13.98
2023-02-02T04:11:04.220Z,22.55
2023-02-02T04:13:31.209Z,16.60
2023-02-02T04:16:01.536Z,18.35
2023-02-02T04:18:29.595Z,12.30
2023-02-02T04:21:01.249Z,17.73
2023-02-02T04:23:29.885Z,16.67
2023-02-02T04:25:57.757Z,23.70
2023-02-02T04:28:26.045Z,21.55
2023-02-02T04:30:54.646Z,19.50
2023-02-02T04:33:24.121Z,22.38
2023-02-02T04:35:51.134Z,19.17
2023-02-02T04:38:18.154Z,20.08
2023-02-02T04:40:47.945Z,12.70
2023-02-02T04:43:15.368Z,19.65
2023-02-02T04:45:42.601Z,17.50
2023-02-02T04:48:09.991Z,22.75
2023-02-02T04:50:38.328Z,19.33
2023-02-02T04:53:05.543Z,22.98
2023-02-02T04:55:37.912Z,17.17
2023-02-02T04:58:05.965Z,18.52
2023-02-02T05:00:33.369Z,23.80
2023-02-02T05:03:00.640Z,17.23
2023-02-02T05:05:27.607Z,23.38
2023-02-02T05:07:54.700Z,16.27
2023-02-02T05:10:21.875Z,19.05
2023-02-02T05:12:49.036Z,20.10
2023-02-02T05:15:16.036Z,22.10
2023-02-02T05:17:44.255Z,20.15
2023-02-02T05:20:11.963Z,26.33
2023-02-02T05:22:39.268Z,22.35
2023-02-02T05:25:07.613Z,14.27
2023-02-02T05:27:35.005Z,19.48
2023-02-02T05:30:02.235Z,22.92
2023-02-02T05:32:29.961Z,15.85
2023-02-02T05:34:57.077Z,24.55
2023-02-02T05:37:24.032Z,22.10
2023-02-02T05:39:52.294Z,18.45
2023-02-02T05:42:19.318Z,17.95
2023-02-02T05:44:46.233Z,17.25
2023-02-02T05:47:13.181Z,29.88
2023-02-02T05:49:40.067Z,19.52
2023-02-02T05:52:07.711Z,19.90
2023-02-02T05:54:34.801Z,25.98
2023-02-02T05:57:03.229Z,17.77
2023-02-02T05:59:30.186Z,23.73
2023-02-02T06:01:57.281Z,21.10
2023-02-02T06:04:24.131Z,22.55
2023-02-02T06:06:51.037Z,17.48
2023-02-02T06:09:17.997Z,26.77
2023-02-02T06:11:45.661Z,21.33
2023-02-02T06:14:13.110Z,24.95
2023-02-02T06:16:42.743Z,21.60
2023-02-02T06:19:09.781Z,33.45
2023-02-02T06:21:36.759Z,21.13
2023-02-02T06:24:03.840Z,21.58
2023-02-02T06:26:30.853Z,17.13
2023-02-02T06:28:57.877Z,23.27
2023-02-02T06:31:25.286Z,24.25
2023-02-02T06:33:57.955Z,27.50
2023-02-02T06:36:27.568Z,18.98
2023-02-02T06:38:57.292Z,23.73
2023-02-02T06:41:24.950Z,22.52
2023-02-02T06:43:52.361Z,23.63
2023-02-02T06:46:19.626Z,35.45
2023-02-02T06:48:46.713Z,21.52
2023-02-02T06:51:13.816Z,20.02
2023-02-02T06:53:40.808Z,25.42
2023-02-02T06:56:11.933Z,25.45
2023-02-02T06:58:39.375Z,26.02
2023-02-02T07:01:11.014Z,22.50
2023-02-02T07:03:38.462Z,37.63
2023-02-02T07:06:18.609Z,21.25
2023-02-02T07:08:54.582Z,23.27
2023-02-02T07:11:29.859Z,22.77
2023-02-02T07:13:56.992Z,24.50
2023-02-02T07:16:24.126Z,19.95
2023-02-02T07:18:51.361Z,23.38
2023-02-02T07:21:25.814Z,24.58
2023-02-02T07:23:52.696Z,16.95
2023-02-02T07:26:20.268Z,20.38
2023-02-02T07:28:47.660Z,18.35
2023-02-02T07:31:22.175Z,22.67
2023-02-02T07:33:50.176Z,20.50
2023-02-02T07:36:20.533Z,29.27
2023-02-02T07:38:49.199Z,24.80
2023-02-02T07:41:16.579Z,24.38
2023-02-02T07:43:50.088Z,23.13
2023-02-02T07:46:18.344Z,20.73
2023-02-02T07:48:45.836Z,22.50
2023-02-02T07:51:16.425Z,17.90
2023-02-02T07:53:49.370Z,22.38
2023-02-02T07:56:23.085Z,26.90
2023-02-02T07:58:53.587Z,18.92
2023-02-02T08:01:23.033Z,20.60
2023-02-02T08:03:51.131Z,24.10
2023-02-02T08:06:37.419Z,18.40
2023-02-02T08:09:10.371Z,21.27
2023-02-02T08:11:38.705Z,19.17
2023-02-02T08:14:06.996Z,21.50
2023-02-02T08:16:36.193Z,16.55
2023-02-02T08:19:06.469Z,20.38
2023-02-02T08:21:34.939Z,26.75
2023-02-02T08:24:03.129Z,20.05
2023-02-02T08:26:31.963Z,18.95
2023-02-02T08:29:03.105Z,18.58
2023-02-02T08:31:39.363Z,18.92
2023-02-02T08:34:06.508Z,25.17
2023-02-02T08:36:35.508Z,18.10
2023-02-02T08:39:07.480Z,18.92
2023-02-02T08:41:35.240Z,10.93
2023-02-02T08:44:05.665Z,24.90
2023-02-02T08:46:32.778Z,12.27
2023-02-02T08:48:59.815Z,14.98
2023-02-02T08:51:26.708Z,14.65
2023-02-02T08:53:53.585Z,16.40
2023-02-02T08:56:23.253Z,13.70
2023-02-02T08:58:55.952Z,21.25
2023-02-02T09:01:26.418Z,13.15
2023-02-02T09:04:08.661Z,11.82
2023-02-02T09:06:40.025Z,14.98
2023-02-02T09:09:10.856Z,21.15
2023-02-02T09:11:39.060Z,12.48
2023-02-02T09:14:06.884Z,15.52
2023-02-02T09:16:35.765Z,16.10
2023-02-02T09:19:04.079Z,11.02
2023-02-02T09:21:31.036Z,22.77
2023-02-02T09:23:57.982Z,18.48
2023-02-02T09:26:29.295Z,16.08
2023-02-02T09:29:03.878Z,20.33
2023-02-02T09:31:34.840Z,20.42
2023-02-02T09:34:14.388Z,17.55
2023-02-02T09:36:43.064Z,14.32
2023-02-02T09:39:16.683Z,17.52
2023-02-02T09:41:55.972Z,16.20
2023-02-02T09:44:49.218Z,17.63
2023-02-02T09:47:25.428Z,15.70
2023-02-02T09:50:09.392Z,20.20
2023-02-02T09:52:49.911Z,17.77
2023-02-02T09:55:43.161Z,15.07
2023-02-02T09:58:31.555Z,21.35
2023-02-02T10:01:25.939Z,22.30
2023-02-02T10:04:05.689Z,15.88
2023-02-02T10:06:43.893Z,20.13
2023-02-02T10:09:48.873Z,19.83
2023-02-02T10:12:33.282Z,20.30
2023-02-02T10:15:13.259Z,16.30
2023-02-02T10:18:11.267Z,17.10
2023-02-02T10:20:58.362Z,18.08
2023-02-02T10:23:42.055Z,12.95
2023-02-02T10:26:34.416Z,23.48
2023-02-02T10:29:48.924Z,24.10
2023-02-02T10:32:35.170Z,18.40
2023-02-02T10:35:59.997Z,13.70
2023-02-02T10:38:49.399Z,11.05
2023-02-02T10:41:41.458Z,15.93
2023-02-02T10:44:34.656Z,15.65
2023-02-02T10:47:08.941Z,15.43
2023-02-02T10:49:39.193Z,18.15
2023-02-02T10:52:12.269Z,13.85
2023-02-02T10:58:07.847Z,13.02
2023-02-02T11:00:46.864Z,17.58
2023-02-02T11:03:16.850Z,12.73
2023-02-02T11:06:02.778Z,12.68
2023-02-02T11:08:44.069Z,19.23
2023-02-02T11:11:22.626Z,14.98
2023-02-02T11:14:08.828Z,16.77
2023-02-02T11:16:44.017Z,26.60
2023-02-02T11:19:24.261Z,17.73
2023-02-02T11:21:56.680Z,25.65
2023-02-02T11:24:45.538Z,18.15
2023-02-02T11:27:24.481Z,13.23
2023-02-02T11:29:57.408Z,14.77
2023-02-02T11:32:32.118Z,15.27
2023-02-02T11:35:08.288Z,13.77
2023-02-02T11:37:37.948Z,13.98
2023-02-02T11:40:27.706Z,14.90
2023-02-02T11:43:02.413Z,18.05
2023-02-02T11:45:40.647Z,15.48
2023-02-02T11:48:22.167Z,10.75
2023-02-02T11:50:54.027Z,13.32
2023-02-02T11:53:35.253Z,17.50
2023-02-02T11:56:19.144Z,17.95
2023-02-02T11:58:53.505Z,14.90
2023-02-02T12:01:46.902Z,18.63
2023-02-02T12:04:16.505Z,12.30
2023-02-02T12:06:43.883Z,14.98
2023-02-02T12:09:18.208Z,15.48
2023-02-02T12:12:02.660Z,14.75
2023-02-02T12:15:20.015Z,14.75
2023-02-02T12:17:48.570Z,13.65
2023-02-02T12:20:58.944Z,12.77
2023-02-02T12:23:40.462Z,10.23
2023-02-02T12:26:21.464Z,11.05
2023-02-02T12:29:22.035Z,12.02
2023-02-02T12:32:12.773Z,14.70
2023-02-02T12:35:33.711Z,13.27
2023-02-02T12:38:21.070Z,15.85
2023-02-02T12:41:01.306Z,14.82
2023-02-02T12:43:40.832Z,10.15
2023-02-02T12:46:52.194Z,13.15
2023-02-02T12:49:43.109Z,12.52
2023-02-02T12:52:40.587Z,14.32
2023-02-02T12:55:38.907Z,14.85
2023-02-02T12:58:37.247Z,16.08
2023-02-02T13:01:38.971Z,7.72
2023-02-02T13:04:52.764Z,14.35
2023-02-02T13:07:39.471Z,10.95
2023-02-02T13:10:24.063Z,13.90
2023-02-02T13:13:09.510Z,15.63
2023-02-02T13:15:40.563Z,14.60
2023-02-02T13:18:27.885Z,12.20
2023-02-02T13:21:25.325Z,14.55
2023-02-02T13:23:57.346Z,12.40
2023-02-02T13:26:38.875Z,11.52
2023-02-02T13:29:11.407Z,13.00
2023-02-02T13:32:01.599Z,17.42
2023-02-02T13:34:55.239Z,16.75
2023-02-02T13:38:05.033Z,12.50
2023-02-02T13:40:40.590Z,12.30
2023-02-02T13:43:35.517Z,10.10
2023-02-02T13:46:15.267Z,14.63
2023-02-02T13:49:01.271Z,12.90
2023-02-02T13:51:53.879Z,12.65
2023-02-02T13:54:53.149Z,16.93
2023-02-02T13:57:57.629Z,15.07
2023-02-02T14:00:34.973Z,12.07
2023-02-02T14:03:06.245Z,15.30
2023-02-02T14:05:40.510Z,12.20
2023-02-02T14:08:21.436Z,14.57
2023-02-02T14:11:05.619Z,11.68
2023-02-02T14:14:05.132Z,10.63
2023-02-02T14:16:31.948Z,16.33
2023-02-02T14:19:01.290Z,13.73
2023-02-02T14:21:34.360Z,10.50
2023-02-02T14:24:26.498Z,10.10
2023-02-02T14:27:00.633Z,10.82
2023-02-02T14:29:33.512Z,13.18
2023-02-02T14:32:09.017Z,12.93
2023-02-02T14:34:46.065Z,12.50
2023-02-02T14:37:24.302Z,11.30
2023-02-02T14:40:06.413Z,12.35
2023-02-02T14:43:33.321Z,9.85
2023-02-02T14:46:15.805Z,12.90
2023-02-02T14:48:49.909Z,10.18
2023-02-02T14:51:22.122Z,10.23
2023-02-02T14:54:06.283Z,11.50
2023-02-02T14:56:50.360Z,11.02
2023-02-02T14:59:27.345Z,12.43
2023-02-02T15:02:16.685Z,10.77
2023-02-02T15:04:48.234Z,11.27
2023-02-02T15:07:24.416Z,10.90
2023-02-02T15:09:56.687Z,8.70
2023-02-02T15:12:31.399Z,8.65
2023-02-02T15:15:18.836Z,9.13
2023-02-02T15:18:13.477Z,5.13
2023-02-02T15:20:48.906Z,9.73
2023-02-02T15:23:31.772Z,7.72
2023-02-02T15:26:24.534Z,12.45
2023-02-02T15:28:51.663Z,6.78
2023-02-02T15:31:23.622Z,9.50
2023-02-02T15:34:09.413Z,12.63
2023-02-02T15:36:43.560Z,8.30
2023-02-02T15:39:34.711Z,11.02
2023-02-02T15:42:26.867Z,7.13
2023-02-02T15:44:53.839Z,8.40
2023-02-02T15:47:35.409Z,9.35
2023-02-02T15:50:17.904Z,11.82
2023-02-02T15:52:50.457Z,8.55
2023-02-02T15:55:24.831Z,6.65
2023-02-02T15:57:54.402Z,8.00
2023-02-02T16:00:35.867Z,8.52
2023-02-02T16:03:15.455Z,6.22
2023-02-02T16:05:50.299Z,12.27
2023-02-02T16:08:25.867Z,16.83
2023-02-02T16:11:08.285Z,11.48
2023-02-02T16:13:36.350Z,8.27
2023-02-02T16:16:22.415Z,9.95
2023-02-02T16:19:14.111Z,9.38
2023-02-02T16:21:51.476Z,9.60
2023-02-02T16:24:54.769Z,10.32
2023-02-02T16:27:29.657Z,13.27
2023-02-02T16:30:05.038Z,8.65
2023-02-02T16:32:39.659Z,9.90
2023-02-02T16:35:30.698Z,13.63
2023-02-02T16:38:24.347Z,16.40
2023-02-02T16:41:28.370Z,9.95
2023-02-02T16:43:56.184Z,10.00
2023-02-02T16:46:48.440Z,10.68
2023-02-02T16:49:24.146Z,11.27
2023-02-02T16:52:18.348Z,10.90
2023-02-02T16:54:56.499Z,9.23
2023-02-02T16:57:34.375Z,7.88
2023-02-02T17:00:06.741Z,10.93
2023-02-02T17:02:38.943Z,10.97
2023-02-02T17:05:29.094Z,12.93
2023-02-02T17:08:05.668Z,9.35
2023-02-02T17:10:36.522Z,14.85
2023-02-02T17:13:33.594Z,13.50
2023-02-02T17:16:00.925Z,11.75
2023-02-02T17:18:28.165Z,13.25
2023-02-02T17:21:04.399Z,13.75
2023-02-02T17:23:33.022Z,14.00
2023-02-02T17:26:00.027Z,15.85
2023-02-02T17:28:27.823Z,12.95
2023-02-02T17:31:09.848Z,10.93
2023-02-02T17:33:37.539Z,11.95
2023-02-02T17:36:06.476Z,18.10
2023-02-02T17:38:33.698Z,6.75
2023-02-02T17:41:02.915Z,9.88
2023-02-02T17:43:35.033Z,18.00
2023-02-02T17:46:04.096Z,11.03
2023-02-02T17:48:31.155Z,10.68
2023-02-02T17:50:58.106Z,9.20
2023-02-02T17:53:25.352Z,11.60
2023-02-02T17:55:53.537Z,12.27
2023-02-02T17:58:20.898Z,15.77
2023-02-02T18:00:53.736Z,14.55
2023-02-02T18:03:34.488Z,14.40
2023-02-02T18:06:02.455Z,11.18
2023-02-02T18:08:30.222Z,9.82
2023-02-02T18:10:57.798Z,14.35
2023-02-02T18:13:25.441Z,10.27
2023-02-02T18:15:55.311Z,27.33
2023-02-02T18:18:23.590Z,12.25
2023-02-02T18:20:51.430Z,18.58
2023-02-02T18:23:19.147Z,16.85
2023-02-02T18:25:46.310Z,18.83
2023-02-02T18:28:17.328Z,20.25
2023-02-02T18:30:45.707Z,19.17
2023-02-02T18:33:14.648Z,17.15
2023-02-02T18:35:43.711Z,34.72
2023-02-02T18:38:10.981Z,15.88
2023-02-02T18:40:38.410Z,13.57
2023-02-02T18:43:05.703Z,12.52
2023-02-02T18:45:32.720Z,14.45
2023-02-02T18:47:59.880Z,13.25
2023-02-02T18:50:26.781Z,14.18
2023-02-02T18:52:53.854Z,9.93
2023-02-02T18:55:20.881Z,18.00
2023-02-02T18:57:47.804Z,17.85
2023-02-02T19:00:15.917Z,16.25
2023-02-02T19:02:43.286Z,17.95
2023-02-02T19:05:28.931Z,14.82
2023-02-02T19:07:56.098Z,14.38
2023-02-02T19:10:28.236Z,14.10
2023-02-02T19:13:19.659Z,21.00
2023-02-02T19:15:49.372Z,14.88
2023-02-02T19:18:24.713Z,11.35
2023-02-02T19:20:53.204Z,10.10
2023-02-02T19:23:29.746Z,15.88
2023-02-02T19:25:56.938Z,16.55
2023-02-02T19:28:25.933Z,14.50
2023-02-02T19:30:56.432Z,15.07
2023-02-02T19:33:44.541Z,12.30
2023-02-02T19:36:19.249Z,14.13
2023-02-02T19:38:47.838Z,17.75
2023-02-02T19:41:24.203Z,16.63
2023-02-02T19:44:02.186Z,13.90
2023-02-02T19:46:30.995Z,17.38
2023-02-02T19:49:12.664Z,12.95
2023-02-02T19:51:48.831Z,17.27
2023-02-02T19:54:26.357Z,13.70
2023-02-02T19:57:15.244Z,16.58
2023-02-02T19:59:46.481Z,11.80
2023-02-02T20:02:34.635Z,12.25
2023-02-02T20:05:21.472Z,11.48
2023-02-02T20:08:05.796Z,13.13
2023-02-02T20:10:44.497Z,15.98
2023-02-02T20:13:46.743Z,19.92
2023-02-02T20:16:21.728Z,12.07
2023-02-02T20:18:53.997Z,12.57
2023-02-02T20:21:40.752Z,12.30
2023-02-02T20:24:22.640Z,13.90
2023-02-02T20:26:56.033Z,16.52
2023-02-02T20:29:29.546Z,14.68
2023-02-02T20:31:58.720Z,15.07
2023-02-02T20:34:30.030Z,8.75
2023-02-02T20:37:29.560Z,9.77
2023-02-02T20:40:01.329Z,16.77
2023-02-02T20:42:29.103Z,16.15
2023-02-02T20:44:57.835Z,12.10
2023-02-02T20:47:25.043Z,14.13
2023-02-02T20:49:52.003Z,17.48
2023-02-02T20:52:24.068Z,11.35
2023-02-02T20:54:52.501Z,18.13
2023-02-02T20:57:20.066Z,14.07
2023-02-02T20:59:47.041Z,14.35
2023-02-02T21:02:19.520Z,16.52
2023-02-02T21:04:51.263Z,17.00
2023-02-02T21:07:21.266Z,13.38
2023-02-02T21:09:50.837Z,12.23
2023-02-02T21:12:18.501Z,15.82
2023-02-02T21:14:45.465Z,19.35
2023-02-02T21:17:15.634Z,12.10
2023-02-02T21:19:44.406Z,15.63
2023-02-02T21:22:12.359Z,17.83
2023-02-02T21:24:39.688Z,12.30
2023-02-02T21:27:07.060Z,16.10
2023-02-02T21:29:36.684Z,17.23
2023-02-02T21:32:04.900Z,15.50
2023-02-02T21:34:32.819Z,14.73
2023-02-02T21:37:00.313Z,13.18
2023-02-02T21:39:29.901Z,10.77
2023-02-02T21:42:13.414Z,14.77
2023-02-02T21:44:44.475Z,18.42
2023-02-02T21:47:32.845Z,17.67
2023-02-02T21:50:17.907Z,12.60
2023-02-02T21:52:45.657Z,18.73
2023-02-02T21:55:37.925Z,16.27
2023-02-02T21:58:28.233Z,13.90
2023-02-02T22:01:00.320Z,20.77
2023-02-02T22:03:38.043Z,13.00
2023-02-02T22:06:28.160Z,13.27
2023-02-02T22:09:06.750Z,15.70
2023-02-02T22:11:45.537Z,12.57
2023-02-02T22:14:20.659Z,17.42
2023-02-02T22:16:52.747Z,13.40
2023-02-02T22:19:32.465Z,20.60
2023-02-02T22:22:15.005Z,15.52
2023-02-02T22:24:44.199Z,17.15
2023-02-02T22:27:24.460Z,13.73
2023-02-02T22:29:58.563Z,15.85
2023-02-02T22:32:25.500Z,15.38
2023-02-02T22:34:52.484Z,18.05
2023-02-02T22:37:19.495Z,23.00
2023-02-02T22:39:46.464Z,21.45
2023-02-02T22:42:13.496Z,14.27
2023-02-02T22:44:40.386Z,17.67
2023-02-02T22:47:07.349Z,14.27
2023-02-02T22:49:34.257Z,18.85
2023-02-02T22:52:01.130Z,16.35
2023-02-02T22:54:28.015Z,16.75
2023-02-02T22:56:54.946Z,15.95
2023-02-02T22:59:21.923Z,17.83
2023-02-02T23:01:48.843Z,15.75
2023-02-02T23:04:15.876Z,14.90
2023-02-02T23:06:42.781Z,14.63
2023-02-02T23:09:09.719Z,15.85
2023-02-02T23:11:36.801Z,14.68
2023-02-02T23:14:03.737Z,13.65
2023-02-02T23:16:33.706Z,16.55
2023-02-02T23:19:00.743Z,10.65
2023-02-02T23:21:27.799Z,13.18
2023-02-02T23:23:55.884Z,13.50
2023-02-02T23:26:24.151Z,11.70
2023-02-02T23:28:51.462Z,12.00
2023-02-02T23:31:18.910Z,13.63
2023-02-02T23:33:45.989Z,14.38
2023-02-02T23:36:12.989Z,11.88
2023-02-02T23:38:39.847Z,11.50
2023-02-02T23:41:06.807Z,15.57
2023-02-02T23:43:33.812Z,11.90
2023-02-02T23:46:00.804Z,8.07
2023-02-02T23:48:30.764Z,10.60
2023-02-02T23:50:59.235Z,13.25
2023-02-02T23:53:26.197Z,14.57
2023-02-02T23:55:53.168Z,9.80
2023-02-02T23:58:20.962Z,8.27
